createdAt,value
2019-04-10T00:00:31.835Z,72.31
2019-04-10T00:03:04.111Z,72.42
2019-04-10T00:05:36.183Z,72.32
2019-04-10T00:08:08.843Z,71.89
2019-04-10T00:10:41.747Z,71.51
2019-04-10T00:13:14.211Z,71.95
2019-04-10T00:15:46.451Z,71.83
2019-04-10T00:18:18.003Z,71.27
2019-04-10T00:20:49.423Z,71.44
2019-04-10T00:23:20.623Z,71.64
2019-04-10T00:25:53.043Z,71.60
2019-04-10T00:28:24.196Z,71.96
2019-04-10T00:30:56.185Z,72.09
2019-04-10T00:33:27.719Z,71.71
2019-04-10T00:35:59.879Z,71.97
2019-04-10T00:38:31.606Z,72.08
2019-04-10T00:41:03.815Z,72.08
2019-04-10T00:43:35.444Z,72.08
2019-04-10T00:46:06.662Z,72.13
2019-04-10T00:48:37.684Z,72.23
2019-04-10T00:51:08.915Z,72.58
2019-04-10T00:53:41.257Z,72.91
2019-04-10T00:56:12.930Z,72.40
2019-04-10T00:58:44.257Z,72.35
2019-04-10T01:01:16.422Z,72.94
2019-04-10T01:03:48.967Z,73.62
2019-04-10T01:06:20.692Z,74.35
2019-04-10T01:08:51.829Z,74.06
2019-04-10T01:11:25.214Z,73.74
2019-04-10T01:13:57.064Z,73.65
2019-04-10T01:16:28.239Z,72.91
2019-04-10T01:19:01.636Z,73.51
2019-04-10T01:21:32.945Z,74.04
2019-04-10T01:24:06.229Z,73.88
2019-04-10T01:26:39.149Z,73.91
2019-04-10T01:29:11.305Z,74.45
2019-04-10T01:31:43.430Z,73.69
2019-04-10T01:34:15.145Z,73.64
2019-04-10T01:36:46.532Z,73.69
2019-04-10T01:39:20.086Z,73.69
2019-04-10T01:41:52.180Z,73.37
2019-04-10T01:44:24.634Z,73.28
2019-04-10T01:46:55.638Z,73.15
2019-04-10T01:49:27.364Z,73.46
2019-04-10T01:51:59.591Z,73.67
2019-04-10T01:54:31.232Z,73.52
2019-04-10T01:57:02.534Z,73.14
2019-04-10T01:59:36.155Z,73.23
2019-04-10T02:02:09.630Z,73.47
2019-04-10T02:04:41.731Z,73.63
2019-04-10T02:07:13.892Z,73.78
2019-04-10T02:09:45.870Z,73.53
2019-04-10T02:12:16.866Z,73.31
2019-04-10T02:14:48.848Z,73.62
2019-04-10T02:17:20.447Z,73.57
2019-04-10T02:19:51.415Z,73.35
2019-04-10T02:22:22.619Z,72.80
2019-04-10T02:24:53.731Z,73.77
2019-04-10T02:27:24.808Z,73.91
2019-04-10T02:29:55.917Z,73.70
2019-04-10T02:32:28.340Z,74.04
2019-04-10T02:35:01.094Z,73.67
2019-04-10T02:37:33.173Z,74.31
2019-04-10T02:40:09.788Z,74.68
2019-04-10T02:42:41.557Z,74.24
2019-04-10T02:45:16.864Z,74.41
2019-04-10T02:47:47.680Z,74.27
2019-04-10T02:50:21.884Z,74.21
2019-04-10T02:52:54.938Z,73.82
2019-04-10T02:55:27.191Z,74.23
2019-04-10T02:58:00.735Z,74.03
2019-04-10T03:00:33.671Z,74.25
2019-04-10T03:03:05.601Z,73.97
2019-04-10T03:05:38.337Z,74.58
2019-04-10T03:08:11.272Z,75.27
2019-04-10T03:10:49.562Z,75.28
2019-04-10T03:13:15.444Z,75.23
2019-04-10T03:15:49.694Z,75.43
2019-04-10T03:18:21.049Z,74.94
2019-04-10T03:20:52.681Z,74.82
2019-04-10T03:23:25.175Z,74.63
2019-04-10T03:25:57.294Z,74.44
2019-04-10T03:28:29.236Z,74.78
2019-04-10T03:31:02.521Z,74.94
2019-04-10T03:33:37.730Z,74.78
2019-04-10T03:36:09.482Z,74.71
2019-04-10T03:38:54.545Z,74.35
2019-04-10T03:41:15.794Z,74.39
2019-04-10T03:43:46.908Z,74.34
2019-04-10T03:46:19.374Z,74.33
2019-04-10T03:48:51.512Z,74.01
2019-04-10T03:51:22.861Z,73.94
2019-04-10T03:53:54.276Z,74.66
2019-04-10T03:56:26.104Z,75.32
2019-04-10T03:58:57.853Z,75.61
2019-04-10T04:01:31.901Z,75.60
2019-04-10T04:04:04.971Z,75.50
2019-04-10T04:06:36.657Z,75.52
2019-04-10T04:09:11.654Z,75.29
2019-04-10T04:11:41.990Z,75.14
2019-04-10T04:14:14.437Z,75.78
2019-04-10T04:16:47.073Z,75.30
2019-04-10T04:19:19.130Z,75.77
2019-04-10T04:21:50.660Z,75.47
2019-04-10T04:24:24.981Z,75.64
2019-04-10T04:26:57.400Z,74.75
2019-04-10T04:29:30.305Z,75.00
2019-04-10T04:32:01.454Z,74.52
2019-04-10T04:34:32.818Z,75.09
2019-04-10T04:37:04.463Z,75.19
2019-04-10T04:39:37.298Z,75.27
2019-04-10T04:42:09.255Z,75.46
2019-04-10T04:44:40.711Z,75.40
2019-04-10T04:47:13.310Z,75.69
2019-04-10T04:49:46.737Z,75.78
2019-04-10T04:52:18.337Z,75.88
2019-04-10T04:54:49.827Z,75.92
2019-04-10T04:57:22.449Z,75.85
2019-04-10T04:59:57.709Z,75.44
2019-04-10T05:02:29.001Z,75.15
2019-04-10T05:05:00.432Z,74.31
2019-04-10T05:07:33.335Z,74.48
2019-04-10T05:10:07.195Z,73.53
2019-04-10T05:12:38.223Z,73.46
2019-04-10T05:15:10.920Z,73.40
2019-04-10T05:17:42.286Z,72.06
2019-04-10T05:20:14.771Z,72.21
2019-04-10T05:22:46.214Z,71.98
2019-04-10T05:25:18.794Z,71.48
2019-04-10T05:27:51.098Z,71.65
2019-04-10T05:30:22.453Z,70.80
2019-04-10T05:32:55.619Z,70.21
2019-04-10T05:35:27.776Z,70.14
2019-04-10T05:38:00.377Z,70.18
2019-04-10T05:40:33.279Z,69.85
2019-04-10T05:43:05.907Z,69.89
2019-04-10T05:45:37.997Z,69.80
2019-04-10T05:48:12.127Z,68.88
2019-04-10T05:50:53.135Z,68.05
2019-04-10T05:53:16.967Z,67.77
2019-04-10T05:55:49.347Z,67.16
2019-04-10T05:58:21.760Z,66.66
2019-04-10T06:00:53.423Z,66.64
2019-04-10T06:03:24.829Z,66.05
2019-04-10T06:05:59.596Z,65.55
2019-04-10T06:08:29.771Z,65.48
2019-04-10T06:11:01.314Z,65.41
2019-04-10T06:13:32.646Z,64.95
2019-04-10T06:16:05.653Z,64.91
2019-04-10T06:18:37.882Z,64.43
2019-04-10T06:21:10.412Z,64.58
2019-04-10T06:23:43.443Z,63.93
2019-04-10T06:26:16.575Z,64.67
2019-04-10T06:28:48.536Z,63.63
2019-04-10T06:31:20.748Z,63.13
2019-04-10T06:33:52.820Z,63.29
2019-04-10T06:36:25.082Z,62.42
2019-04-10T06:38:57.016Z,62.38
2019-04-10T06:41:28.436Z,61.77
2019-04-10T06:43:59.822Z,61.68
2019-04-10T06:46:31.171Z,61.84
2019-04-10T06:49:03.114Z,61.30
2019-04-10T06:51:35.510Z,61.04
2019-04-10T06:54:11.036Z,60.61
2019-04-10T06:56:41.052Z,60.68
2019-04-10T06:59:12.613Z,60.23
2019-04-10T07:01:49.573Z,60.02
2019-04-10T07:04:18.143Z,60.50
2019-04-10T07:06:58.097Z,59.29
2019-04-10T07:09:26.221Z,59.12
2019-04-10T07:12:00.194Z,59.18
2019-04-10T07:14:32.412Z,59.07
2019-04-10T07:17:06.988Z,58.41
2019-04-10T07:19:37.540Z,59.59
2019-04-10T07:22:12.458Z,57.32
2019-04-10T07:24:42.553Z,56.21
2019-04-10T07:27:14.245Z,57.20
2019-04-10T07:29:50.647Z,56.07
2019-04-10T07:32:19.441Z,55.52
2019-04-10T07:34:50.875Z,56.12
2019-04-10T07:37:24.055Z,55.00
2019-04-10T07:39:55.271Z,54.95
2019-04-10T07:42:33.853Z,56.11
2019-04-10T07:44:59.860Z,55.78
2019-04-10T07:47:31.625Z,52.82
2019-04-10T07:50:04.782Z,54.14
2019-04-10T07:52:37.171Z,52.56
2019-04-10T07:55:08.859Z,51.88
2019-04-10T07:57:40.866Z,52.51
2019-04-10T08:00:16.025Z,52.56
2019-04-10T08:02:49.154Z,51.69
2019-04-10T08:05:22.955Z,51.86
2019-04-10T08:07:56.462Z,52.26
2019-04-10T08:10:30.681Z,51.66
2019-04-10T08:13:04.651Z,50.31
2019-04-10T08:15:37.801Z,50.52
2019-04-10T08:18:10.028Z,49.90
2019-04-10T08:20:42.478Z,50.79
2019-04-10T08:23:14.861Z,50.50
2019-04-10T08:25:47.479Z,49.32
2019-04-10T08:28:19.841Z,50.12
2019-04-10T08:30:52.525Z,48.56
2019-04-10T08:33:23.533Z,49.21
2019-04-10T08:35:55.099Z,48.94
2019-04-10T08:38:27.949Z,49.81
2019-04-10T08:41:06.054Z,49.04
2019-04-10T08:43:38.274Z,48.39
2019-04-10T08:46:09.380Z,47.14
2019-04-10T08:48:45.534Z,46.90
2019-04-10T08:51:17.148Z,48.61
2019-04-10T08:53:48.863Z,49.15
2019-04-10T08:56:20.474Z,47.83
2019-04-10T08:58:52.747Z,47.66
2019-04-10T09:01:25.151Z,47.04
2019-04-10T09:04:01.405Z,46.40
2019-04-10T09:06:41.801Z,46.93
2019-04-10T09:09:13.948Z,47.14
2019-04-10T09:11:51.619Z,46.08
2019-04-10T09:14:33.001Z,46.48
2019-04-10T09:17:09.022Z,47.01
2019-04-10T09:19:40.715Z,46.57
2019-04-10T09:22:12.067Z,47.29
2019-04-10T09:24:44.616Z,46.59
2019-04-10T09:27:19.219Z,45.78
2019-04-10T09:29:57.451Z,45.86
2019-04-10T09:32:32.595Z,45.52
2019-04-10T09:35:08.711Z,47.34
2019-04-10T09:37:42.127Z,44.75
2019-04-10T09:40:16.507Z,43.92
2019-04-10T09:42:52.850Z,43.90
2019-04-10T09:45:30.767Z,44.34
2019-04-10T09:48:04.195Z,43.95
2019-04-10T09:50:39.649Z,42.74
2019-04-10T09:53:12.802Z,42.39
2019-04-10T09:55:47.108Z,43.08
2019-04-10T09:58:21.797Z,44.68
2019-04-10T10:00:58.537Z,43.74
2019-04-10T10:03:34.877Z,43.23
2019-04-10T10:06:07.028Z,42.97
2019-04-10T10:08:47.903Z,43.81
2019-04-10T10:11:24.344Z,42.08
2019-04-10T10:13:56.410Z,42.71
2019-04-10T10:16:32.381Z,42.87
2019-04-10T10:19:05.840Z,41.46
2019-04-10T10:21:38.837Z,41.33
2019-04-10T10:24:10.918Z,42.05
2019-04-10T10:26:46.515Z,42.47
2019-04-10T10:29:17.656Z,42.09
2019-04-10T10:31:52.187Z,41.88
2019-04-10T10:34:22.775Z,41.20
2019-04-10T10:36:53.628Z,41.83
2019-04-10T10:39:31.742Z,42.00
2019-04-10T10:42:03.907Z,40.52
2019-04-10T10:44:36.290Z,40.99
2019-04-10T10:47:08.388Z,40.09
2019-04-10T10:49:40.535Z,40.01
2019-04-10T10:52:21.913Z,40.53
2019-04-10T10:54:56.943Z,41.05
2019-04-10T10:57:35.860Z,41.50
2019-04-10T11:00:13.073Z,39.90
2019-04-10T11:02:45.556Z,40.98
2019-04-10T11:05:17.117Z,41.11
2019-04-10T11:07:48.979Z,40.84
2019-04-10T11:10:25.445Z,41.24
2019-04-10T11:12:55.351Z,39.81
2019-04-10T11:15:28.994Z,39.65
2019-04-10T11:18:02.056Z,39.95
2019-04-10T11:20:36.355Z,39.80
2019-04-10T11:23:12.065Z,40.01
2019-04-10T11:25:44.327Z,39.63
2019-04-10T11:28:16.310Z,39.00
2019-04-10T11:30:48.163Z,39.49
2019-04-10T11:33:20.661Z,39.69
2019-04-10T11:35:53.428Z,38.37
2019-04-10T11:38:26.175Z,37.82
2019-04-10T11:41:00.065Z,38.48
2019-04-10T11:43:33.457Z,37.78
2019-04-10T11:46:04.693Z,37.84
2019-04-10T11:48:36.620Z,38.29
2019-04-10T11:51:10.106Z,40.05
2019-04-10T11:53:44.513Z,39.53
2019-04-10T11:56:13.743Z,38.96
2019-04-10T11:58:53.789Z,39.64
2019-04-10T12:01:21.149Z,38.77
2019-04-10T12:03:54.372Z,39.78
2019-04-10T12:06:25.338Z,38.39
2019-04-10T12:09:26.382Z,38.02
2019-04-10T12:11:31.757Z,38.06
2019-04-10T12:14:03.044Z,38.45
2019-04-10T12:16:37.519Z,39.06
2019-04-10T12:19:09.679Z,39.18
2019-04-10T12:21:42.116Z,38.39
2019-04-10T12:24:14.097Z,37.90
2019-04-10T12:26:46.000Z,38.51
2019-04-10T12:29:18.368Z,38.74
2019-04-10T12:32:00.792Z,37.49
2019-04-10T12:34:36.187Z,37.85
2019-04-10T12:37:07.714Z,38.49
2019-04-10T12:39:39.296Z,38.58
2019-04-10T12:42:10.864Z,38.09
2019-04-10T12:44:42.782Z,38.51
2019-04-10T12:47:15.448Z,37.19
2019-04-10T12:49:48.090Z,37.56
2019-04-10T12:52:20.630Z,37.01
2019-04-10T12:54:53.231Z,38.31
2019-04-10T12:57:24.866Z,38.16
2019-04-10T13:00:01.506Z,37.79
2019-04-10T13:02:28.698Z,37.26
2019-04-10T13:05:00.856Z,36.30
2019-04-10T13:07:33.567Z,36.17
2019-04-10T13:10:08.727Z,36.59
2019-04-10T13:12:39.980Z,37.12
2019-04-10T13:15:13.113Z,38.34
2019-04-10T13:17:44.900Z,38.99
2019-04-10T13:20:17.664Z,39.64
2019-04-10T13:22:50.567Z,39.23
2019-04-10T13:25:22.033Z,38.90
2019-04-10T13:27:53.434Z,38.66
2019-04-10T13:30:25.114Z,39.73
2019-04-10T13:32:58.333Z,40.08
2019-04-10T13:35:30.302Z,39.83
2019-04-10T13:38:03.205Z,39.17
2019-04-10T13:40:35.275Z,39.61
2019-04-10T13:43:07.273Z,40.48
2019-04-10T13:45:39.412Z,40.74
2019-04-10T13:48:13.004Z,39.89
2019-04-10T13:50:44.162Z,40.17
2019-04-10T13:53:15.527Z,39.95
2019-04-10T13:55:47.072Z,40.63
2019-04-10T13:58:21.164Z,40.65
2019-04-10T14:00:53.592Z,40.88
2019-04-10T14:03:30.418Z,41.06
2019-04-10T14:06:07.418Z,41.04
2019-04-10T14:08:58.609Z,40.52
2019-04-10T14:11:13.178Z,40.03
2019-04-10T14:13:44.850Z,40.13
2019-04-10T14:16:16.960Z,41.15
2019-04-10T14:18:52.898Z,39.79
2019-04-10T14:21:24.873Z,38.94
2019-04-10T14:23:57.676Z,39.85
2019-04-10T14:26:46.734Z,39.72
2019-04-10T14:29:15.015Z,39.23
2019-04-10T14:31:48.940Z,39.20
2019-04-10T14:34:21.312Z,38.89
2019-04-10T14:36:52.816Z,38.84
2019-04-10T14:39:25.413Z,38.27
2019-04-10T14:41:56.614Z,38.52
2019-04-10T14:44:28.523Z,38.94
2019-04-10T14:47:00.238Z,39.40
2019-04-10T14:49:31.988Z,40.01
2019-04-10T14:52:03.464Z,39.77
2019-04-10T14:54:35.691Z,39.73
2019-04-10T14:57:07.445Z,39.75
2019-04-10T14:59:40.008Z,39.73
2019-04-10T15:02:30.726Z,39.98
2019-04-10T15:05:08.158Z,39.50
2019-04-10T15:07:39.938Z,39.91
2019-04-10T15:10:12.016Z,40.75
2019-04-10T15:12:44.054Z,41.35
2019-04-10T15:15:41.016Z,41.24
2019-04-10T15:18:45.909Z,41.20
2019-04-10T15:21:47.579Z,41.36
2019-04-10T15:24:55.879Z,40.70
2019-04-10T15:35:10.462Z,39.67
2019-04-10T15:37:49.269Z,39.76
2019-04-10T15:40:25.798Z,39.52
2019-04-10T15:43:03.655Z,39.63
2019-04-10T15:45:35.920Z,39.63
2019-04-10T15:48:08.396Z,39.05
2019-04-10T15:50:39.649Z,39.81
2019-04-10T15:53:11.742Z,39.30
2019-04-10T15:55:43.680Z,39.48
2019-04-10T15:58:17.302Z,39.81
2019-04-10T16:00:50.236Z,39.62
2019-04-10T16:03:21.871Z,39.90
2019-04-10T16:05:53.569Z,39.62
2019-04-10T16:08:28.136Z,39.38
2019-04-10T16:11:02.096Z,39.40
2019-04-10T16:13:36.644Z,40.22
2019-04-10T16:16:10.072Z,40.96
2019-04-10T16:18:41.873Z,41.95
2019-04-10T16:21:13.040Z,42.76
2019-04-10T16:23:46.146Z,44.02
2019-04-10T16:26:18.799Z,44.21
2019-04-10T16:28:51.587Z,44.46
2019-04-10T16:31:23.542Z,44.31
2019-04-10T16:33:55.366Z,44.11
2019-04-10T16:36:27.927Z,44.54
2019-04-10T16:38:59.513Z,44.57
2019-04-10T16:41:31.223Z,44.36
2019-04-10T16:44:02.807Z,44.41
2019-04-10T16:46:34.525Z,43.88
2019-04-10T16:49:06.566Z,43.53
2019-04-10T16:51:48.275Z,44.17
2019-04-10T16:54:22.280Z,43.58
2019-04-10T16:56:54.148Z,44.01
2019-04-10T16:59:29.942Z,43.99
2019-04-10T17:02:01.836Z,43.66
2019-04-10T17:04:36.057Z,43.94
2019-04-10T17:07:08.568Z,44.18
2019-04-10T17:09:45.478Z,44.23
2019-04-10T17:12:17.784Z,43.85
2019-04-10T17:14:53.385Z,43.56
2019-04-10T17:17:28.895Z,43.65
2019-04-10T17:20:08.569Z,43.87
2019-04-10T17:22:45.337Z,43.98
2019-04-10T17:25:14.223Z,45.44
2019-04-10T17:27:45.929Z,46.32
2019-04-10T17:30:19.713Z,46.61
2019-04-10T17:32:52.168Z,47.38
2019-04-10T17:35:24.616Z,47.91
2019-04-10T17:37:56.666Z,48.24
2019-04-10T17:40:36.700Z,48.82
2019-04-10T17:43:05.177Z,48.97
2019-04-10T17:45:38.425Z,49.46
2019-04-10T17:48:11.654Z,49.79
2019-04-10T17:50:43.720Z,49.98
2019-04-10T17:53:16.567Z,50.41
2019-04-10T17:55:48.014Z,50.74
2019-04-10T17:58:19.177Z,50.68
2019-04-10T18:00:52.138Z,50.93
2019-04-10T18:03:23.523Z,50.99
2019-04-10T18:05:55.174Z,51.26
2019-04-10T18:08:27.110Z,51.31
2019-04-10T18:11:00.269Z,51.20
2019-04-10T18:13:31.532Z,51.32
2019-04-10T18:16:02.752Z,51.21
2019-04-10T18:18:33.590Z,51.42
2019-04-10T18:21:04.965Z,51.68
2019-04-10T18:23:36.029Z,51.67
2019-04-10T18:26:08.685Z,51.56
2019-04-10T18:28:39.484Z,51.81
2019-04-10T18:31:10.469Z,51.91
2019-04-10T18:33:41.375Z,51.86
2019-04-10T18:36:13.325Z,52.31
2019-04-10T18:38:44.493Z,51.71
2019-04-10T18:41:15.779Z,52.27
2019-04-10T18:43:46.749Z,52.38
2019-04-10T18:46:19.491Z,52.17
2019-04-10T18:48:51.285Z,52.67
2019-04-10T18:51:23.488Z,52.61
2019-04-10T18:53:54.829Z,53.01
2019-04-10T18:56:25.482Z,53.30
2019-04-10T18:58:58.415Z,53.22
2019-04-10T19:01:31.394Z,53.71
2019-04-10T19:04:05.822Z,54.35
2019-04-10T19:06:38.593Z,54.79
2019-04-10T19:09:18.490Z,55.32
2019-04-10T19:11:44.204Z,55.40
2019-04-10T19:14:18.445Z,55.97
2019-04-10T19:16:49.862Z,55.60
2019-04-10T19:19:20.937Z,55.89
2019-04-10T19:21:53.778Z,55.92
2019-04-10T19:24:25.965Z,55.94
2019-04-10T19:26:57.889Z,55.94
2019-04-10T19:29:30.283Z,55.87
2019-04-10T19:32:03.748Z,55.58
2019-04-10T19:34:35.197Z,56.32
2019-04-10T19:37:06.368Z,56.46
2019-04-10T19:39:38.290Z,56.88
2019-04-10T19:42:11.193Z,56.84
2019-04-10T19:44:47.632Z,57.22
2019-04-10T19:47:22.082Z,57.39
2019-04-10T19:49:55.105Z,57.96
2019-04-10T19:52:27.080Z,58.62
2019-04-10T19:54:58.162Z,58.42
2019-04-10T19:57:35.608Z,58.32
2019-04-10T20:00:12.721Z,58.65
2019-04-10T20:02:43.684Z,58.76
2019-04-10T20:05:18.078Z,58.98
2019-04-10T20:07:51.402Z,59.24
2019-04-10T20:10:23.449Z,59.29
2019-04-10T20:12:59.251Z,59.36
2019-04-10T20:15:31.632Z,59.71
2019-04-10T20:18:04.428Z,60.22
2019-04-10T20:20:39.518Z,60.06
2019-04-10T20:23:14.191Z,60.08
2019-04-10T20:25:48.389Z,60.17
2019-04-10T20:28:21.210Z,60.49
2019-04-10T20:31:04.820Z,60.84
2019-04-10T20:33:38.780Z,60.54
2019-04-10T20:36:13.026Z,60.11
2019-04-10T20:38:45.574Z,60.62
2019-04-10T20:41:18.235Z,60.74
2019-04-10T20:43:51.153Z,60.83
2019-04-10T20:46:24.246Z,61.32
2019-04-10T20:48:55.382Z,61.33
2019-04-10T20:51:31.101Z,61.36
2019-04-10T20:54:02.782Z,61.40
2019-04-10T20:56:35.541Z,61.80
2019-04-10T20:59:09.978Z,62.37
2019-04-10T21:01:45.350Z,62.36
2019-04-10T21:04:19.312Z,62.59
2019-04-10T21:06:56.503Z,62.98
2019-04-10T21:09:29.771Z,63.03
2019-04-10T21:12:09.568Z,63.40
2019-04-10T21:14:36.471Z,63.45
2019-04-10T21:17:08.792Z,63.47
2019-04-10T21:19:40.965Z,63.42
2019-04-10T21:22:13.818Z,64.04
2019-04-10T21:24:46.099Z,64.11
2019-04-10T21:27:18.589Z,64.22
2019-04-10T21:29:52.704Z,63.87
2019-04-10T21:32:26.161Z,63.98
2019-04-10T21:35:02.081Z,64.24
2019-04-10T21:37:34.672Z,64.04
2019-04-10T21:40:10.306Z,64.12
2019-04-10T21:42:44.129Z,64.19
2019-04-10T21:45:16.514Z,64.19
2019-04-10T21:47:48.257Z,63.65
2019-04-10T21:50:21.495Z,63.90
2019-04-10T21:52:59.643Z,64.29
2019-04-10T21:55:32.135Z,64.41
2019-04-10T21:58:06.087Z,64.83
2019-04-10T22:00:38.829Z,64.69
2019-04-10T22:03:11.828Z,65.71
2019-04-10T22:05:44.731Z,66.21
2019-04-10T22:08:17.340Z,66.34
2019-04-10T22:10:50.347Z,66.28
2019-04-10T22:13:21.966Z,65.96
2019-04-10T22:15:53.433Z,65.86
2019-04-10T22:18:27.479Z,65.75
2019-04-10T22:21:00.425Z,65.74
2019-04-10T22:23:34.315Z,66.17
2019-04-10T22:26:07.884Z,66.64
2019-04-10T22:28:39.846Z,66.31
2019-04-10T22:31:11.646Z,66.53
2019-04-10T22:33:43.300Z,66.51
2019-04-10T22:36:15.047Z,66.63
2019-04-10T22:38:46.221Z,66.36
2019-04-10T22:41:25.337Z,66.87
2019-04-10T22:43:50.425Z,66.96
2019-04-10T22:46:25.817Z,66.67
2019-04-10T22:48:57.784Z,66.67
2019-04-10T22:51:29.521Z,66.46
2019-04-10T22:54:00.241Z,66.54
2019-04-10T22:56:31.919Z,66.61
2019-04-10T22:59:03.983Z,66.34
2019-04-10T23:01:39.789Z,67.71
2019-04-10T23:04:12.234Z,68.18
2019-04-10T23:06:44.999Z,68.49
2019-04-10T23:09:16.473Z,68.28
2019-04-10T23:11:47.748Z,68.23
2019-04-10T23:14:18.942Z,68.01
2019-04-10T23:16:50.491Z,68.20
2019-04-10T23:19:22.399Z,68.09
2019-04-10T23:21:54.633Z,67.88
2019-04-10T23:24:27.622Z,68.35
2019-04-10T23:27:01.745Z,69.60
2019-04-10T23:29:32.733Z,68.72
2019-04-10T23:32:07.294Z,68.72
2019-04-10T23:34:38.955Z,69.56
2019-04-10T23:37:10.905Z,69.18
2019-04-10T23:39:46.167Z,69.18
2019-04-10T23:42:17.563Z,69.38
2019-04-10T23:44:49.241Z,69.38
2019-04-10T23:47:22.107Z,68.98
2019-04-10T23:49:54.075Z,69.09
2019-04-10T23:52:25.543Z,68.99
2019-04-10T23:54:57.592Z,69.20
2019-04-10T23:57:29.505Z,68.69
